Laguna, NM (87026)

11:10 AM MDT on August 28, 2015 (GMT -0600)
MesoWest | | Change Station
CLOSE
Current Station
Personal Weather Station
Location: Canoncito, NM
Elevation: 5556 ft
Nearby Weather Stations

Elev 5556 ft 34.98 °N, 107.17 °W | Updated 30 minutes ago

Partly Cloudy
Partly Cloudy
79 °F
Feels Like 79 °F
N
2
Wind Variable Wind from North
Gusts 9.0 mph

Today
High -- | Low -- °F
--% Chance of Precip.
Yesterday
High -- | Low -- °F
Precip. -- in
6:39 AM 7:41 PM
Waxing Gibbous, 98% visible
Pressure 30.35 in
Visibility 10.0 miles
Clouds Clear
Heat Index 79 °F
Dew Point 54 °F
Humidity 42%
Rainfall in
Snow Depth Not available.
UV 8 out of 12
Pollen 6.90 out of 12
Air Quality Not available.
Flu Activity Not available.
METAR KGNT 281655Z AUTO 00000KT 10SM CLR 23/12 A3035 RMK AO2 T02280124
Pressure 30.35 in
Visibility 10.0 miles
Clouds Clear
Heat Index 79 °F
Dew Point 54 °F
Humidity 42%
Rainfall in
Snow Depth Not available.
UV 8 out of 12
Pollen 6.90 out of 12
Air Quality Not available.
Flu Activity Not available.
METAR KGNT 281655Z AUTO 00000KT 10SM CLR 23/12 A3035 RMK AO2 T02280124

10-Day Weather Forecast

×

Almanac

Astronomy

Aug. 28, 2015 Rise Set
Actual Time
Civil Twilight
Nautical Twilight
Astronomical Twilight
Moon
Length of Visible Light
Length of Day
Tomorrow will be .
, % of the Moon is Illuminated

Today's Extremes

State Highs State Lows

Community

WunderPhotos

Upload Photos

1,850,438 photos uploaded!

WunderBlogs® & News

Nearby

Air Quality

  Air Quality AQ Index Pollutant
Not available.

Snow Depth

Station Depth Elevation

Earthquake Activity

City Distance Mag. Time & Date
Minimum magnitude displayed is 2.5.

Coastal Water Temperatures

Place Temperature

Stations

Nearby Weather Stations

Station Location Temp. Windchill Dew Point Humidity Wind Precip. Elev Updated Type